createdAt,value
2022-11-20T00:02:20.285Z,13.65
2022-11-20T00:07:21.743Z,12.77
2022-11-20T00:12:23.281Z,14.40
2022-11-20T00:17:24.688Z,15.38
2022-11-20T00:22:26.102Z,13.30
2022-11-20T00:27:27.499Z,13.20
2022-11-20T00:32:28.878Z,11.45
2022-11-20T00:37:30.274Z,11.40
2022-11-20T00:42:33.591Z,10.50
2022-11-20T00:47:34.955Z,12.48
2022-11-20T00:52:36.339Z,10.82
2022-11-20T00:57:37.727Z,10.07
2022-11-20T01:02:39.192Z,10.98
2022-11-20T01:07:40.592Z,10.73
2022-11-20T01:12:41.998Z,12.10
2022-11-20T01:17:43.381Z,12.43
2022-11-20T01:22:44.752Z,10.95
2022-11-20T01:27:46.114Z,10.05
2022-11-20T01:32:47.482Z,13.90
2022-11-20T01:37:48.847Z,11.85
2022-11-20T01:43:19.641Z,13.23
2022-11-20T01:48:23.099Z,14.20
2022-11-20T01:53:29.135Z,11.40
2022-11-20T01:58:36.454Z,8.75
2022-11-20T02:03:37.984Z,9.45
2022-11-20T02:08:40.099Z,10.73
2022-11-20T02:13:44.936Z,8.88
2022-11-20T02:18:47.544Z,10.77
2022-11-20T02:24:10.433Z,10.18
2022-11-20T02:29:11.819Z,8.02
2022-11-20T02:34:13.210Z,9.93
2022-11-20T02:39:17.879Z,12.55
2022-11-20T02:44:19.407Z,9.95
2022-11-20T02:49:21.096Z,10.15
2022-11-20T02:54:22.821Z,8.85
2022-11-20T02:59:24.342Z,8.88
2022-11-20T03:04:25.818Z,8.55
2022-11-20T03:09:27.234Z,9.02
2022-11-20T03:14:29.147Z,11.07
2022-11-20T03:19:30.527Z,11.57
2022-11-20T03:24:31.895Z,10.13
2022-11-20T03:29:33.358Z,9.48
2022-11-20T03:34:34.723Z,8.00
2022-11-20T03:39:36.099Z,9.57
2022-11-20T03:44:37.624Z,12.52
2022-11-20T03:49:38.983Z,10.20
2022-11-20T03:54:40.359Z,9.30
2022-11-20T03:59:41.730Z,9.18
2022-11-20T04:04:43.096Z,9.15
2022-11-20T04:09:44.533Z,8.23
2022-11-20T04:14:45.894Z,9.88
2022-11-20T04:19:47.572Z,9.30
2022-11-20T04:24:48.937Z,9.15
2022-11-20T04:29:50.322Z,9.63
2022-11-20T04:34:51.691Z,8.80
2022-11-20T04:39:53.059Z,9.15
2022-11-20T04:44:54.532Z,7.75
2022-11-20T04:49:55.974Z,7.13
2022-11-20T04:54:57.430Z,7.47
2022-11-20T04:59:58.811Z,8.60
2022-11-20T05:05:00.439Z,7.40
2022-11-20T05:10:01.826Z,7.82
2022-11-20T05:15:03.435Z,8.52
2022-11-20T05:20:05.227Z,8.13
2022-11-20T05:25:06.911Z,8.63
2022-11-20T05:30:09.062Z,7.43
2022-11-20T05:35:10.427Z,8.10
2022-11-20T05:40:12.439Z,5.63
2022-11-20T05:45:13.862Z,5.88
2022-11-20T05:50:15.739Z,6.45
2022-11-20T05:55:17.240Z,6.55
2022-11-20T06:00:18.893Z,5.35
2022-11-20T06:05:20.315Z,4.65
2022-11-20T06:10:21.685Z,6.13
2022-11-20T06:15:23.047Z,5.70
2022-11-20T06:20:24.411Z,8.45
2022-11-20T06:25:25.776Z,7.13
2022-11-20T06:30:27.220Z,5.68
2022-11-20T06:35:28.590Z,6.70
2022-11-20T06:40:29.955Z,8.25
2022-11-20T06:45:31.307Z,6.95
2022-11-20T06:50:32.719Z,8.05
2022-11-20T06:55:34.105Z,7.68
2022-11-20T07:00:35.524Z,6.35
2022-11-20T07:05:37.167Z,10.35
2022-11-20T07:10:38.894Z,9.32
2022-11-20T07:15:40.259Z,9.23
2022-11-20T07:20:41.620Z,8.30
2022-11-20T07:25:43.035Z,6.45
2022-11-20T07:30:51.012Z,7.35
2022-11-20T07:35:52.446Z,9.30
2022-11-20T07:40:58.347Z,9.82
2022-11-20T07:45:59.938Z,9.23
2022-11-20T07:51:01.398Z,11.23
2022-11-20T07:56:03.958Z,9.00
2022-11-20T08:01:09.309Z,9.33
2022-11-20T08:06:11.067Z,11.20
2022-11-20T08:11:31.227Z,10.57
2022-11-20T08:16:32.613Z,11.45
2022-11-20T08:21:38.214Z,10.90
2022-11-20T08:26:41.431Z,12.43
2022-11-20T08:31:42.812Z,11.98
2022-11-20T08:36:44.234Z,11.00
2022-11-20T08:41:45.691Z,10.60
2022-11-20T08:46:47.938Z,10.20
2022-11-20T08:51:52.592Z,12.73
2022-11-20T08:56:54.121Z,10.82
2022-11-20T09:01:55.594Z,12.50
2022-11-20T09:06:56.962Z,11.88
2022-11-20T09:11:58.386Z,11.52
2022-11-20T09:17:00.011Z,10.55
2022-11-20T09:22:01.386Z,12.25
2022-11-20T09:27:04.679Z,10.90
2022-11-20T09:37:08.014Z,11.02
2022-11-20T09:42:33.753Z,9.35
2022-11-20T09:48:19.218Z,10.20
2022-11-20T09:53:43.314Z,7.78
2022-11-20T09:58:48.665Z,8.65
2022-11-20T10:04:02.911Z,8.75
2022-11-20T10:09:13.185Z,8.68
2022-11-20T10:14:50.606Z,6.95
2022-11-20T10:20:03.655Z,8.85
2022-11-20T10:25:20.995Z,8.23
2022-11-20T10:30:25.722Z,10.25
2022-11-20T10:35:29.677Z,8.10
2022-11-20T10:40:47.047Z,9.18
2022-11-20T10:45:56.103Z,7.65
2022-11-20T10:51:16.309Z,9.80
2022-11-20T10:56:35.597Z,9.32
2022-11-20T11:01:42.914Z,9.07
2022-11-20T11:06:49.590Z,8.95
2022-11-20T11:11:51.007Z,13.07
2022-11-20T11:16:57.729Z,10.82
2022-11-20T11:21:59.558Z,13.25
2022-11-20T11:27:16.871Z,11.75
2022-11-20T11:32:21.566Z,12.40
2022-11-20T11:37:23.636Z,11.77
2022-11-20T11:42:25.172Z,11.57
2022-11-20T11:47:31.899Z,15.32
2022-11-20T11:52:36.831Z,15.02
2022-11-20T11:57:38.420Z,16.00
2022-11-20T12:02:46.715Z,13.15
2022-11-20T12:08:00.308Z,12.07
2022-11-20T12:13:30.733Z,11.85
2022-11-20T12:18:32.664Z,11.65
2022-11-20T12:23:55.396Z,18.23
2022-11-20T12:29:16.951Z,11.43
2022-11-20T12:35:06.114Z,12.27
2022-11-20T12:40:46.675Z,14.90
2022-11-20T12:46:07.066Z,12.40
2022-11-20T12:51:27.201Z,15.38
2022-11-20T12:56:51.372Z,13.90
2022-11-20T13:02:28.033Z,9.95
2022-11-20T13:07:31.382Z,9.70
2022-11-20T13:12:45.341Z,11.68
2022-11-20T13:18:00.160Z,12.13
2022-11-20T13:23:01.535Z,11.23
2022-11-20T13:28:28.567Z,21.80
2022-11-20T13:33:33.348Z,14.52
2022-11-20T13:38:47.327Z,11.20
2022-11-20T13:43:49.332Z,11.73
2022-11-20T13:48:54.370Z,10.13
2022-11-20T13:54:18.659Z,9.85
2022-11-20T13:59:23.050Z,9.43
2022-11-20T14:04:35.907Z,10.20
2022-11-20T14:09:37.270Z,12.93
2022-11-20T14:14:49.890Z,11.88
2022-11-20T14:19:52.675Z,11.53
2022-11-20T14:25:07.599Z,10.02
2022-11-20T14:30:45.588Z,13.57
2022-11-20T14:35:55.908Z,14.63
2022-11-20T14:41:18.184Z,14.27
2022-11-20T14:46:19.810Z,12.93
2022-11-20T14:51:30.475Z,14.18
2022-11-20T14:56:31.938Z,11.27
2022-11-20T15:01:34.312Z,14.77
2022-11-20T15:06:36.528Z,14.23
2022-11-20T15:11:37.936Z,14.88
2022-11-20T15:16:40.254Z,15.27
2022-11-20T15:21:41.622Z,17.07
2022-11-20T15:26:43.762Z,15.32
2022-11-20T15:31:45.929Z,13.60
2022-11-20T15:36:47.306Z,15.77
2022-11-20T15:41:48.687Z,14.05
2022-11-20T15:46:50.282Z,12.45
2022-11-20T15:51:53.579Z,11.82
2022-11-20T15:56:55.016Z,13.10
2022-11-20T16:01:56.468Z,17.25
2022-11-20T16:06:58.003Z,13.15
2022-11-20T16:12:02.750Z,13.55
2022-11-20T16:17:04.260Z,14.27
2022-11-20T16:22:05.704Z,13.13
2022-11-20T16:27:07.067Z,12.18
2022-11-20T16:32:09.533Z,12.95
2022-11-20T16:37:10.952Z,11.83
2022-11-20T16:42:12.327Z,15.25
2022-11-20T16:47:13.833Z,13.07
2022-11-20T16:52:15.239Z,13.13
2022-11-20T16:57:16.662Z,16.00
2022-11-20T17:02:18.119Z,15.40
2022-11-20T17:07:19.874Z,15.45
2022-11-20T17:24:50.545Z,15.10
2022-11-20T17:30:17.319Z,14.68
2022-11-20T17:35:18.674Z,14.20
2022-11-20T17:40:23.198Z,21.73
2022-11-20T17:45:28.445Z,23.88
2022-11-20T17:50:29.823Z,19.58
2022-11-20T17:55:55.431Z,14.88
2022-11-20T18:01:05.283Z,14.73
2022-11-20T18:06:14.183Z,12.77
2022-11-20T18:11:19.951Z,13.90
2022-11-20T18:16:21.330Z,13.77
2022-11-20T18:21:23.545Z,13.18
2022-11-20T18:26:25.741Z,10.65
2022-11-20T18:31:27.259Z,13.30
2022-11-20T18:36:31.047Z,11.68
2022-11-20T18:41:51.026Z,12.10
2022-11-20T18:46:52.646Z,12.07
2022-11-20T18:51:54.900Z,10.65
2022-11-20T18:56:56.363Z,12.05
2022-11-20T19:01:57.721Z,11.70
2022-11-20T19:06:59.174Z,13.20
2022-11-20T19:12:00.626Z,13.35
2022-11-20T19:17:03.270Z,12.60
2022-11-20T19:22:04.718Z,10.43
2022-11-20T19:27:06.223Z,14.60
2022-11-20T19:32:07.663Z,12.40
2022-11-20T19:37:09.983Z,14.05
2022-11-20T19:42:11.702Z,11.77
2022-11-20T19:47:14.663Z,12.95
2022-11-20T19:52:16.494Z,11.55
2022-11-20T19:57:17.940Z,14.02
2022-11-20T20:02:19.430Z,13.35
2022-11-20T20:07:20.927Z,12.18
2022-11-20T20:12:22.374Z,15.18
2022-11-20T20:17:23.796Z,13.30
2022-11-20T20:22:25.316Z,16.25
2022-11-20T20:27:26.772Z,15.50
2022-11-20T20:33:07.732Z,13.05
2022-11-20T20:38:44.855Z,13.38
2022-11-20T20:44:06.883Z,15.63
2022-11-20T21:02:04.954Z,15.75
2022-11-20T22:22:16.155Z,16.63
2022-11-20T22:27:18.574Z,13.55
2022-11-20T22:32:19.944Z,12.90
2022-11-20T22:37:21.343Z,15.20
2022-11-20T22:42:22.717Z,15.77
2022-11-20T22:47:24.141Z,16.48
2022-11-20T22:52:25.510Z,14.18
2022-11-20T22:57:26.879Z,14.60
2022-11-20T23:02:28.245Z,15.63
2022-11-20T23:07:31.580Z,15.85
2022-11-20T23:12:32.947Z,16.88
2022-11-20T23:17:34.590Z,16.35
2022-11-20T23:22:36.018Z,15.98
2022-11-20T23:27:37.410Z,17.17
2022-11-20T23:32:38.775Z,17.05
2022-11-20T23:37:40.144Z,18.50
2022-11-20T23:43:01.498Z,15.55
2022-11-20T23:48:02.864Z,16.33
2022-11-20T23:53:04.505Z,14.35
2022-11-20T23:58:05.910Z,15.73
